Time;durP1;ratioP1;P1;durP2;ratioP2;P2;SDS_P1;SDS_P2;PMS_P1;PMS_P2;Temp;Humidity;BMP_temperature;BMP_pressure;BME280_temperature;BME280_humidity;BME280_pressure;Samples;Min_cycle;Max_cycle;Signal;HPM_P1;HPM_P2
2022/12/27 00:00:47;;;;;;;14.00;3.78;;;1.50;99.90;;;;;;5055932;28;20119;-64
2022/12/27 00:03:12;;;;;;;19.48;4.20;;;1.50;99.90;;;;;;5042174;28;20029;-64
2022/12/27 00:05:45;;;;;;;14.52;4.25;;;1.50;99.90;;;;;;5056383;28;20032;-65
2022/12/27 00:08:11;;;;;;;13.20;4.13;;;1.50;99.90;;;;;;5058466;28;20048;-65
2022/12/27 00:10:37;;;;;;;20.92;3.75;;;1.50;99.90;;;;;;5060921;28;20102;-64
2022/12/27 00:13:03;;;;;;;16.15;4.03;;;1.60;99.90;;;;;;5073795;28;20096;-63
2022/12/27 00:15:29;;;;;;;14.80;4.18;;;1.60;99.90;;;;;;5051263;28;20590;-63
2022/12/27 00:17:55;;;;;;;13.45;4.15;;;1.60;99.90;;;;;;5051851;28;20049;-64
2022/12/27 00:20:20;;;;;;;11.95;4.53;;;1.60;99.90;;;;;;5041895;28;20044;-63
2022/12/27 00:22:46;;;;;;;19.00;4.47;;;1.60;99.90;;;;;;5048062;28;20032;-63
2022/12/27 00:25:12;;;;;;;17.92;5.50;;;1.60;99.90;;;;;;5037217;28;20037;-63
2022/12/27 00:27:38;;;;;;;9.90;4.18;;;1.60;99.90;;;;;;5062244;28;20131;-63
2022/12/27 00:30:04;;;;;;;11.07;4.60;;;1.60;99.90;;;;;;5039166;28;20034;-64
2022/12/27 00:32:29;;;;;;;14.27;4.32;;;1.60;99.90;;;;;;5048771;28;20685;-63
2022/12/27 00:34:55;;;;;;;12.55;4.28;;;1.60;99.90;;;;;;5038785;28;20049;-63
2022/12/27 00:37:21;;;;;;;12.45;4.30;;;1.60;99.90;;;;;;5045711;28;20045;-61
2022/12/27 00:39:46;;;;;;;15.63;4.18;;;1.60;99.90;;;;;;5031027;28;20117;-64
2022/12/27 00:42:12;;;;;;;18.80;3.92;;;1.60;99.90;;;;;;5047387;28;20387;-63
2022/12/27 00:44:38;;;;;;;14.95;4.10;;;1.60;99.90;;;;;;5036225;28;20072;-62
2022/12/27 00:47:04;;;;;;;14.20;4.70;;;1.70;99.90;;;;;;5045754;28;20081;-64
2022/12/27 00:49:29;;;;;;;17.35;5.85;;;1.60;99.90;;;;;;5042656;28;20055;-63
2022/12/27 00:51:55;;;;;;;17.80;4.60;;;1.60;99.90;;;;;;5047577;28;20044;-61
2022/12/27 00:54:21;;;;;;;14.23;3.72;;;1.60;99.90;;;;;;5041768;28;20082;-63
2022/12/27 00:56:46;;;;;;;12.98;4.38;;;1.60;99.90;;;;;;5047371;28;20067;-65
2022/12/27 00:59:12;;;;;;;15.95;4.30;;;1.70;99.90;;;;;;5038702;28;20405;-63
2022/12/27 01:01:38;;;;;;;11.20;3.83;;;1.70;99.90;;;;;;5047866;28;20401;-63
2022/12/27 01:04:04;;;;;;;7.85;3.63;;;1.70;99.90;;;;;;5046393;28;20033;-63
2022/12/27 01:06:32;;;;;;;10.55;3.95;;;1.80;99.90;;;;;;5036659;28;20043;-63
2022/12/27 01:08:59;;;;;;;16.40;4.72;;;1.80;99.90;;;;;;5038019;28;20904;-64
2022/12/27 01:11:27;;;;;;;12.00;4.07;;;1.90;99.90;;;;;;5043372;28;20065;-64
2022/12/27 01:14:01;;;;;;;13.48;4.25;;;1.90;99.90;;;;;;5039519;28;20067;-61
2022/12/27 01:16:29;;;;;;;11.02;3.85;;;1.90;99.90;;;;;;5042716;28;20500;-63
2022/12/27 01:18:55;;;;;;;10.77;4.40;;;1.90;99.90;;;;;;5049416;28;20048;-63
2022/12/27 01:21:23;;;;;;;13.77;4.35;;;2.00;99.90;;;;;;5052821;28;20041;-63
2022/12/27 01:23:48;;;;;;;10.93;3.90;;;2.00;99.90;;;;;;5041569;28;20037;-63
2022/12/27 01:26:17;;;;;;;17.90;6.05;;;2.00;99.90;;;;;;5038612;28;20047;-64
2022/12/27 01:28:43;;;;;;;11.95;4.65;;;2.00;99.90;;;;;;5051227;28;20069;-63
2022/12/27 01:31:13;;;;;;;11.38;3.85;;;2.00;99.90;;;;;;5049738;28;20075;-64
2022/12/27 01:33:39;;;;;;;14.05;4.45;;;1.90;99.90;;;;;;5034481;28;20037;-63
2022/12/27 01:36:30;;;;;;;14.88;4.65;;;2.00;99.90;;;;;;5041205;28;20033;-63
2022/12/27 01:38:57;;;;;;;13.85;4.43;;;2.00;99.90;;;;;;5036553;28;20055;-62
2022/12/27 01:44:36;;;;;;;14.50;5.18;;;2.00;99.90;;;;;;5048544;28;20127;-64
2022/12/27 01:47:12;;;;;;;12.93;4.32;;;2.00;99.90;;;;;;5054583;28;20174;-63
2022/12/27 01:49:49;;;;;;;14.43;5.28;;;2.00;99.90;;;;;;5032308;28;20028;-63
2022/12/27 01:52:14;;;;;;;16.50;4.32;;;2.10;99.90;;;;;;5052368;28;20044;-63
2022/12/27 01:54:41;;;;;;;14.43;4.03;;;2.10;99.90;;;;;;5032788;28;20079;-63
2022/12/27 01:57:08;;;;;;;11.70;4.35;;;2.10;99.90;;;;;;5053011;28;20605;-63
2022/12/27 01:59:34;;;;;;;15.15;3.90;;;2.20;99.90;;;;;;5048727;28;20049;-63
2022/12/27 02:02:00;;;;;;;16.40;4.10;;;2.20;99.90;;;;;;5041558;28;20040;-61
2022/12/27 02:04:29;;;;;;;12.85;4.10;;;2.20;99.90;;;;;;5044038;28;20040;-63
2022/12/27 02:06:55;;;;;;;14.77;4.60;;;2.20;99.90;;;;;;5041036;28;20099;-64
2022/12/27 02:09:34;;;;;;;10.75;4.00;;;2.30;99.90;;;;;;5041667;28;20628;-65
2022/12/27 02:12:01;;;;;;;12.98;4.60;;;2.30;99.90;;;;;;5058596;28;20040;-65
2022/12/27 02:14:35;;;;;;;10.23;4.22;;;2.30;99.90;;;;;;5047757;28;20123;-66
2022/12/27 02:17:07;;;;;;;10.13;4.38;;;2.30;99.90;;;;;;5053945;28;20185;-65
2022/12/27 02:19:41;;;;;;;10.40;3.85;;;2.30;99.90;;;;;;5059458;28;20040;-65
2022/12/27 02:25:52;;;;;;;13.32;4.32;;;2.30;99.90;;;;;;5034771;28;20045;-66
2022/12/27 02:28:36;;;;;;;10.15;3.53;;;2.40;99.90;;;;;;5049130;28;20086;-65
2022/12/27 02:31:10;;;;;;;17.27;3.90;;;2.40;99.90;;;;;;5055272;28;20057;-65
2022/12/27 02:33:42;;;;;;;8.40;3.17;;;2.40;99.90;;;;;;5039340;28;20041;-64
2022/12/27 02:36:13;;;;;;;15.07;3.78;;;2.40;99.90;;;;;;5047911;28;20040;-65
2022/12/27 02:38:44;;;;;;;13.13;4.40;;;2.40;99.90;;;;;;5043808;28;20098;-65
2022/12/27 02:58:49;;;;;;;14.05;4.00;;;2.50;99.90;;;;;;5032775;28;20046;-65
2022/12/27 03:04:39;;;;;;;13.85;3.10;;;2.50;99.90;;;;;;5044305;28;20618;-65
2022/12/27 03:07:33;;;;;;;9.45;2.97;;;2.60;99.90;;;;;;5042960;28;20548;-65
2022/12/27 03:16:12;;;;;;;11.73;3.40;;;2.60;99.90;;;;;;5049555;28;20043;-63
2022/12/27 03:18:58;;;;;;;7.88;2.80;;;2.50;99.90;;;;;;5053425;28;20036;-65
2022/12/27 03:27:38;;;;;;;14.18;4.93;;;2.60;99.90;;;;;;5047320;28;20049;-65
2022/12/27 03:38:01;;;;;;;14.20;3.33;;;2.70;99.90;;;;;;5035282;28;19916;-65
2022/12/27 03:38:35;;;;;;;9.75;3.22;;;2.70;99.90;;;;;;5051750;28;20098;-65
2022/12/27 03:43:49;;;;;;;9.15;3.50;;;2.70;99.90;;;;;;5061349;28;20045;-65
2022/12/27 03:46:34;;;;;;;13.48;3.67;;;2.70;99.90;;;;;;5053092;28;20045;-65
2022/12/27 03:49:33;;;;;;;11.40;3.22;;;2.70;99.90;;;;;;5049678;28;20045;-63
2022/12/27 03:52:18;;;;;;;15.55;3.50;;;2.70;99.90;;;;;;5044628;28;20029;-63
2022/12/27 03:54:47;;;;;;;10.68;2.95;;;2.70;99.90;;;;;;5043034;28;20497;-63
2022/12/27 03:57:22;;;;;;;10.90;3.28;;;2.70;99.90;;;;;;5044322;28;20542;-63
2022/12/27 03:59:48;;;;;;;11.35;3.72;;;2.70;99.90;;;;;;5044524;28;20075;-63
2022/12/27 04:02:14;;;;;;;14.35;3.50;;;2.70;99.90;;;;;;5054154;28;20691;-63
2022/12/27 04:04:40;;;;;;;11.07;3.20;;;2.70;99.90;;;;;;5052449;28;20454;-63
2022/12/27 04:07:06;;;;;;;9.45;4.40;;;2.70;99.90;;;;;;5042818;28;20048;-63
2022/12/27 04:36:56;;;;;;;8.85;2.58;;;2.80;99.90;;;;;;5049080;28;20044;-64
2022/12/27 04:39:22;;;;;;;14.32;3.22;;;2.80;99.90;;;;;;5045912;28;20154;-64
2022/12/27 04:55:58;;;;;;;12.90;2.72;;;2.90;99.90;;;;;;5057659;28;20497;-64
2022/12/27 04:58:24;;;;;;;12.88;3.05;;;2.90;99.90;;;;;;5045333;28;20045;-64
2022/12/27 05:03:35;;;;;;;14.45;3.72;;;2.90;99.90;;;;;;5032609;28;20493;-64
2022/12/27 05:06:01;;;;;;;10.25;2.58;;;2.80;99.90;;;;;;5055682;28;20051;-64
2022/12/27 05:14:00;;;;;;;18.70;3.53;;;2.90;99.90;;;;;;5035753;28;20041;-66
2022/12/27 05:16:37;;;;;;;10.60;3.45;;;2.90;99.90;;;;;;5043040;28;20044;-64
2022/12/27 05:19:05;;;;;;;14.43;3.78;;;2.90;99.90;;;;;;5057457;28;20082;-64
2022/12/27 05:21:38;;;;;;;8.23;3.22;;;2.90;99.90;;;;;;5048126;28;20041;-64
2022/12/27 05:26:55;;;;;;;9.77;3.28;;;3.00;99.90;;;;;;5025319;28;20053;-64
2022/12/27 05:29:20;;;;;;;12.98;4.15;;;3.00;99.90;;;;;;5042258;28;20037;-64
2022/12/27 05:31:46;;;;;;;10.23;3.45;;;3.00;99.90;;;;;;5042234;28;20677;-64
2022/12/27 05:34:11;;;;;;;8.80;3.08;;;3.00;99.90;;;;;;5042511;28;20079;-64
2022/12/27 05:36:37;;;;;;;12.60;3.25;;;3.00;99.90;;;;;;5046551;28;20079;-64
2022/12/27 05:39:03;;;;;;;15.43;4.05;;;3.00;99.90;;;;;;5040077;28;20033;-64
2022/12/27 05:41:28;;;;;;;10.95;3.58;;;3.10;99.90;;;;;;5049461;28;20041;-64
2022/12/27 05:43:54;;;;;;;7.80;3.70;;;3.00;99.90;;;;;;5051547;28;20033;-63
2022/12/27 05:46:21;;;;;;;7.35;3.05;;;3.10;99.90;;;;;;5045504;28;20033;-64
2022/12/27 05:48:47;;;;;;;10.88;4.13;;;3.10;99.90;;;;;;5049548;28;20060;-64
2022/12/27 05:51:18;;;;;;;9.85;3.75;;;3.10;99.90;;;;;;5038443;28;20083;-64
2022/12/27 05:53:44;;;;;;;18.02;4.35;;;3.00;99.90;;;;;;5042940;28;20108;-64
2022/12/27 05:56:15;;;;;;;13.40;4.50;;;3.10;99.90;;;;;;5045165;28;20710;-63
2022/12/27 05:58:41;;;;;;;11.80;4.15;;;3.10;99.90;;;;;;5035417;28;20716;-63
2022/12/27 06:01:09;;;;;;;10.88;4.63;;;3.00;99.90;;;;;;5044980;28;20044;-64
2022/12/27 06:03:36;;;;;;;15.05;4.38;;;3.00;99.90;;;;;;5050582;28;20459;-64
2022/12/27 06:06:03;;;;;;;12.55;4.60;;;3.00;99.90;;;;;;5047649;28;20097;-64
2022/12/27 06:08:29;;;;;;;12.80;4.82;;;3.00;99.90;;;;;;5043730;28;20041;-63
2022/12/27 06:11:02;;;;;;;9.35;4.40;;;3.00;99.90;;;;;;5050235;28;20059;-63
2022/12/27 06:13:28;;;;;;;19.42;4.80;;;3.10;99.90;;;;;;5042682;28;20049;-64
2022/12/27 06:15:54;;;;;;;22.35;4.53;;;3.10;99.90;;;;;;5043631;28;20044;-64
2022/12/27 06:18:19;;;;;;;9.40;4.03;;;3.10;99.90;;;;;;5054383;28;20100;-63
2022/12/27 06:20:45;;;;;;;15.30;5.63;;;3.10;99.90;;;;;;5044787;28;20024;-64
2022/12/27 06:23:10;;;;;;;10.82;4.15;;;3.10;99.90;;;;;;5039433;28;20125;-61
2022/12/27 06:25:39;;;;;;;12.55;4.25;;;3.10;99.90;;;;;;5042779;28;20448;-63
2022/12/27 06:28:05;;;;;;;11.27;3.80;;;3.10;99.90;;;;;;5050421;28;20055;-60
2022/12/27 06:30:30;;;;;;;9.35;3.90;;;3.10;99.90;;;;;;5045249;28;20127;-63
2022/12/27 06:32:56;;;;;;;7.82;3.50;;;3.10;99.90;;;;;;5051600;28;20103;-63
2022/12/27 06:35:21;;;;;;;7.53;2.80;;;3.00;99.90;;;;;;5044756;28;20775;-60
2022/12/27 06:37:47;;;;;;;8.13;2.70;;;3.00;99.90;;;;;;5047386;28;20052;-64
2022/12/27 06:40:12;;;;;;;5.28;2.45;;;3.00;99.90;;;;;;5044594;28;20043;-63
2022/12/27 06:42:38;;;;;;;8.77;2.42;;;2.90;99.90;;;;;;5043702;28;20060;-64
2022/12/27 06:45:05;;;;;;;4.82;2.13;;;2.80;99.90;;;;;;5034088;28;20095;-65
2022/12/27 06:47:31;;;;;;;4.13;2.90;;;2.80;99.90;;;;;;5047834;28;20048;-63
2022/12/27 06:49:57;;;;;;;10.05;2.78;;;2.70;99.90;;;;;;5048487;28;20162;-63
2022/12/27 06:52:23;;;;;;;7.30;2.97;;;2.80;99.90;;;;;;5045529;28;20087;-64
2022/12/27 06:54:48;;;;;;;10.60;3.78;;;2.80;99.90;;;;;;5041850;28;20574;-64
2022/12/27 06:57:14;;;;;;;8.13;3.65;;;2.80;99.90;;;;;;5044772;28;20052;-66
2022/12/27 06:59:39;;;;;;;5.47;3.67;;;2.80;99.90;;;;;;5042540;28;20044;-64
2022/12/27 07:02:05;;;;;;;14.13;4.30;;;2.90;99.90;;;;;;5048812;28;20036;-65
2022/12/27 07:04:31;;;;;;;13.15;4.20;;;2.90;99.90;;;;;;5040960;28;20044;-64
2022/12/27 07:06:57;;;;;;;8.07;3.83;;;2.90;99.90;;;;;;5045385;28;20071;-65
2022/12/27 07:09:22;;;;;;;8.77;4.13;;;3.00;99.90;;;;;;5044246;28;20041;-65
2022/12/27 07:11:48;;;;;;;9.00;4.30;;;2.90;99.90;;;;;;5049252;28;20129;-65
2022/12/27 07:14:13;;;;;;;10.13;4.25;;;2.90;99.90;;;;;;5057890;28;20041;-64
2022/12/27 07:16:39;;;;;;;13.07;4.85;;;2.90;99.90;;;;;;5045596;28;20751;-63
2022/12/27 07:19:04;;;;;;;10.40;3.72;;;3.00;99.90;;;;;;5029744;28;20069;-63
2022/12/27 07:21:30;;;;;;;10.57;4.00;;;3.00;99.90;;;;;;5048367;28;20028;-64
2022/12/27 07:23:56;;;;;;;8.38;3.63;;;3.00;99.90;;;;;;5041059;28;20147;-63
2022/12/27 07:26:28;;;;;;;13.18;4.15;;;3.00;99.90;;;;;;5040198;28;20595;-63
2022/12/27 07:28:56;;;;;;;10.15;3.55;;;3.00;99.90;;;;;;5047588;28;20514;-64
2022/12/27 07:31:25;;;;;;;12.18;4.40;;;3.00;99.90;;;;;;5055547;28;20047;-60
2022/12/27 07:33:52;;;;;;;10.20;4.43;;;3.00;99.90;;;;;;5057828;28;20036;-63
2022/12/27 07:36:20;;;;;;;12.25;3.88;;;3.10;99.90;;;;;;5055109;28;20052;-63
2022/12/27 07:38:46;;;;;;;8.23;3.15;;;3.10;99.90;;;;;;5042021;28;20037;-62
2022/12/27 07:41:13;;;;;;;9.43;3.95;;;3.10;99.90;;;;;;5048170;28;20071;-60
2022/12/27 07:43:39;;;;;;;9.77;3.97;;;3.10;99.90;;;;;;5042764;28;20041;-61
2022/12/27 07:46:16;;;;;;;13.25;4.35;;;3.10;99.90;;;;;;5044567;28;20049;-62
2022/12/27 07:48:42;;;;;;;10.73;4.47;;;3.10;99.90;;;;;;5054377;28;20101;-62
2022/12/27 07:51:07;;;;;;;13.32;3.97;;;3.10;99.90;;;;;;5048654;28;20481;-62
2022/12/27 07:53:34;;;;;;;13.35;4.07;;;3.10;99.90;;;;;;5052187;28;20338;-62
2022/12/27 07:56:05;;;;;;;12.23;3.65;;;3.10;99.90;;;;;;5051540;28;20048;-61
2022/12/27 07:58:38;;;;;;;8.55;3.65;;;3.10;99.90;;;;;;5053590;28;20488;-62
2022/12/27 08:01:04;;;;;;;12.85;4.30;;;3.10;99.90;;;;;;5041953;28;20531;-60
2022/12/27 08:03:30;;;;;;;13.23;3.92;;;3.10;99.90;;;;;;5035608;28;20064;-61
2022/12/27 08:05:56;;;;;;;12.23;3.35;;;3.10;99.90;;;;;;5044641;28;20055;-61
2022/12/27 08:08:23;;;;;;;7.95;4.00;;;3.10;99.90;;;;;;5041315;28;20037;-61
2022/12/27 08:10:49;;;;;;;10.02;3.65;;;3.10;99.90;;;;;;5040471;28;20123;-62
2022/12/27 08:13:16;;;;;;;12.07;4.65;;;3.20;99.90;;;;;;5040909;28;20133;-59
2022/12/27 08:15:42;;;;;;;10.90;3.85;;;3.20;99.90;;;;;;5039409;28;20047;-60
2022/12/27 08:18:08;;;;;;;13.52;3.40;;;3.20;99.90;;;;;;5040225;28;20037;-62
2022/12/27 08:20:35;;;;;;;9.18;3.60;;;3.20;99.90;;;;;;5034434;28;20035;-60
2022/12/27 08:23:01;;;;;;;12.10;4.03;;;3.20;99.90;;;;;;5046269;28;20072;-63
2022/12/27 08:25:28;;;;;;;7.93;3.47;;;3.20;99.90;;;;;;5045445;28;20701;-61
2022/12/27 08:28:05;;;;;;;10.25;3.42;;;3.20;99.90;;;;;;5045351;28;20029;-62
2022/12/27 08:30:32;;;;;;;13.68;3.60;;;3.20;99.90;;;;;;5040033;28;20040;-62
2022/12/27 08:32:59;;;;;;;13.18;4.18;;;3.20;99.90;;;;;;5050738;28;20048;-62
2022/12/27 08:35:24;;;;;;;11.10;3.53;;;3.20;99.90;;;;;;5036686;28;20045;-62
2022/12/27 08:37:50;;;;;;;11.13;4.00;;;3.20;99.90;;;;;;5045741;28;20109;-60
2022/12/27 08:40:16;;;;;;;11.40;3.45;;;3.30;99.90;;;;;;5050652;28;20033;-61
2022/12/27 08:42:41;;;;;;;9.40;3.80;;;3.20;99.90;;;;;;5047476;28;20044;-62
2022/12/27 08:45:08;;;;;;;19.45;6.57;;;3.20;99.90;;;;;;5033922;28;20405;-62
2022/12/27 08:47:33;;;;;;;6.40;2.90;;;3.30;99.90;;;;;;5030853;28;20036;-62
2022/12/27 08:49:59;;;;;;;9.70;3.20;;;3.30;99.90;;;;;;5041769;28;20425;-60
2022/12/27 08:52:25;;;;;;;7.22;2.83;;;3.30;99.90;;;;;;5051280;28;20036;-62
2022/12/27 08:54:51;;;;;;;10.30;3.22;;;3.30;99.90;;;;;;5049871;28;20047;-61
2022/12/27 08:57:16;;;;;;;7.50;2.95;;;3.40;99.90;;;;;;5048086;28;20060;-65
2022/12/27 08:59:42;;;;;;;7.85;2.83;;;3.40;99.90;;;;;;5043565;28;20033;-62
2022/12/27 09:02:10;;;;;;;14.15;3.17;;;3.40;99.90;;;;;;5043054;28;20067;-60
2022/12/27 09:04:35;;;;;;;15.65;3.35;;;3.40;99.90;;;;;;5042771;28;20166;-60
2022/12/27 09:07:01;;;;;;;12.00;3.55;;;3.50;99.90;;;;;;5048561;28;21155;-63
2022/12/27 09:09:27;;;;;;;11.95;3.40;;;3.50;99.90;;;;;;5055792;28;20055;-60
2022/12/27 09:11:53;;;;;;;10.65;3.05;;;3.50;99.90;;;;;;5055023;28;20768;-60
2022/12/27 09:14:19;;;;;;;9.50;3.45;;;3.60;99.90;;;;;;5042691;28;20067;-61
2022/12/27 09:16:45;;;;;;;14.75;3.90;;;3.60;99.90;;;;;;5047094;28;20057;-60
2022/12/27 09:19:10;;;;;;;14.18;3.17;;;3.50;99.90;;;;;;5038388;28;20049;-62
2022/12/27 09:21:39;;;;;;;7.85;3.08;;;3.60;99.90;;;;;;5044952;28;20048;-61
2022/12/27 09:24:06;;;;;;;7.20;2.90;;;3.60;99.90;;;;;;5041742;28;20037;-59
2022/12/27 09:26:32;;;;;;;11.27;2.80;;;3.60;99.90;;;;;;5047565;28;20075;-61
2022/12/27 09:28:59;;;;;;;8.50;2.80;;;3.60;99.90;;;;;;5040153;28;20241;-61
2022/12/27 09:31:26;;;;;;;9.65;2.75;;;3.60;99.90;;;;;;5045724;28;20558;-59
2022/12/27 09:33:52;;;;;;;9.43;2.88;;;3.60;99.90;;;;;;5042211;28;21248;-61
2022/12/27 09:36:21;;;;;;;5.25;2.13;;;3.60;99.90;;;;;;5048400;28;20075;-60
2022/12/27 09:38:50;;;;;;;10.48;2.78;;;3.70;99.90;;;;;;5039025;28;20041;-59
2022/12/27 09:41:25;;;;;;;14.73;3.15;;;3.80;99.90;;;;;;5043448;28;20040;-59
2022/12/27 09:44:24;;;;;;;11.05;2.78;;;3.80;99.90;;;;;;5038532;28;20086;-64
2022/12/27 09:47:01;;;;;;;9.55;3.00;;;3.80;99.90;;;;;;5052766;28;20121;-61
2022/12/27 09:49:36;;;;;;;13.80;3.15;;;3.80;99.90;;;;;;5042744;28;20029;-61
2022/12/27 09:52:16;;;;;;;12.52;3.20;;;3.90;99.90;;;;;;5053788;28;20059;-60
2022/12/27 09:54:42;;;;;;;11.98;3.83;;;4.00;99.90;;;;;;5038718;28;20122;-60
2022/12/27 09:57:20;;;;;;;11.27;3.08;;;4.10;99.90;;;;;;5053263;28;20102;-61
2022/12/27 09:59:54;;;;;;;11.88;2.97;;;4.10;99.90;;;;;;5049379;28;20056;-60
2022/12/27 10:02:23;;;;;;;8.13;2.67;;;4.20;99.90;;;;;;5053003;28;20404;-60
2022/12/27 10:04:50;;;;;;;9.63;2.33;;;4.20;99.90;;;;;;5048174;28;20127;-61
2022/12/27 10:07:47;;;;;;;8.55;2.83;;;4.20;99.90;;;;;;5043108;28;20060;-61
2022/12/27 10:10:22;;;;;;;10.33;2.70;;;4.10;99.90;;;;;;5055119;28;20503;-61
2022/12/27 10:13:09;;;;;;;9.23;3.10;;;4.20;99.90;;;;;;5047877;28;20039;-61
2022/12/27 10:15:45;;;;;;;12.52;3.70;;;4.20;99.90;;;;;;5044604;28;20119;-62
2022/12/27 10:18:22;;;;;;;9.13;2.45;;;4.20;99.90;;;;;;5053885;28;20044;-59
2022/12/27 10:21:20;;;;;;;14.57;2.75;;;4.20;99.90;;;;;;5046774;28;20091;-61
2022/12/27 10:23:53;;;;;;;10.55;3.53;;;4.10;99.90;;;;;;5045898;28;20052;-60
2022/12/27 10:26:19;;;;;;;8.27;2.45;;;4.10;99.90;;;;;;5037907;28;20677;-60
2022/12/27 10:28:53;;;;;;;6.93;2.53;;;4.10;99.90;;;;;;5053216;28;20037;-61
2022/12/27 10:31:22;;;;;;;9.30;3.20;;;4.20;99.90;;;;;;5043378;28;20500;-61
2022/12/27 10:33:49;;;;;;;13.15;3.13;;;4.20;99.90;;;;;;5030336;28;20053;-59
2022/12/27 10:36:19;;;;;;;17.90;3.92;;;4.20;99.90;;;;;;5053452;28;21266;-60
2022/12/27 10:38:45;;;;;;;10.20;3.05;;;4.30;99.90;;;;;;5051101;28;20037;-60
2022/12/27 10:41:48;;;;;;;14.82;3.67;;;4.40;99.90;;;;;;5050644;28;20037;-60
2022/12/27 10:44:15;;;;;;;8.38;2.17;;;4.50;99.90;;;;;;5043446;28;20053;-61
2022/12/27 10:46:43;;;;;;;9.50;3.17;;;4.60;99.90;;;;;;5048717;28;20631;-62
2022/12/27 10:49:32;;;;;;;13.65;3.13;;;4.60;99.90;;;;;;5044340;28;20495;-61
2022/12/27 10:52:15;;;;;;;9.82;2.85;;;4.50;99.90;;;;;;5045595;28;20052;-61
2022/12/27 10:54:52;;;;;;;9.88;2.88;;;4.50;99.90;;;;;;5036174;28;20044;-61
2022/12/27 10:57:32;;;;;;;12.93;3.00;;;4.40;99.90;;;;;;5052602;28;20040;-61
2022/12/27 11:00:14;;;;;;;12.90;3.00;;;4.40;99.90;;;;;;5045537;28;20584;-61
2022/12/27 11:02:51;;;;;;;8.13;2.78;;;4.30;99.90;;;;;;5042830;28;20041;-64
2022/12/27 11:05:31;;;;;;;7.65;2.55;;;4.40;99.90;;;;;;5024622;28;20033;-67
2022/12/27 11:07:56;;;;;;;12.75;3.88;;;4.40;99.90;;;;;;5055564;28;20051;-60
2022/12/27 11:10:30;;;;;;;13.02;3.92;;;4.40;99.90;;;;;;5050003;28;20038;-63
2022/12/27 11:13:03;;;;;;;7.30;2.80;;;4.40;99.90;;;;;;5052393;28;20065;-64
2022/12/27 11:15:35;;;;;;;7.53;2.83;;;4.30;99.90;;;;;;5034022;28;20049;-64
2022/12/27 11:18:08;;;;;;;9.95;2.70;;;4.40;99.90;;;;;;5045244;28;20041;-65
2022/12/27 11:20:55;;;;;;;7.85;2.92;;;4.40;99.90;;;;;;5042006;28;20043;-62
2022/12/27 11:23:22;;;;;;;;;;;4.50;99.90;;;;;;5050383;28;20484;-58
2022/12/27 11:25:57;;;;;;;9.23;2.53;;;4.60;99.90;;;;;;5048172;28;19920;-65
2022/12/27 11:28:38;;;;;;;7.75;2.10;;;4.70;99.90;;;;;;5052723;28;20098;-64
2022/12/27 11:31:11;;;;;;;11.90;3.00;;;4.70;99.90;;;;;;5042819;28;20059;-63
2022/12/27 11:33:52;;;;;;;11.55;2.20;;;4.70;99.90;;;;;;5040360;28;20045;-63
2022/12/27 11:36:31;;;;;;;9.02;2.28;;;4.60;99.90;;;;;;5040436;28;20049;-63
2022/12/27 11:38:57;;;;;;;9.40;2.45;;;4.60;99.90;;;;;;5041922;28;20037;-63
2022/12/27 11:41:49;;;;;;;9.63;2.53;;;4.60;99.90;;;;;;5044936;28;20049;-62
2022/12/27 11:44:22;;;;;;;9.07;2.70;;;4.60;99.90;;;;;;5036300;28;20099;-63
2022/12/27 11:46:53;;;;;;;10.45;2.40;;;4.50;99.90;;;;;;5043379;28;20041;-62
2022/12/27 11:49:22;;;;;;;6.85;2.05;;;4.50;99.90;;;;;;5037280;28;20589;-63
2022/12/27 11:52:06;;;;;;;13.05;2.40;;;4.50;99.90;;;;;;5046042;28;20037;-62
2022/12/27 11:54:52;;;;;;;11.45;2.67;;;4.60;99.90;;;;;;5037982;28;20034;-63
2022/12/27 11:57:45;;;;;;;7.28;1.95;;;4.60;99.90;;;;;;5037558;28;20041;-63
2022/12/27 12:00:22;;;;;;;10.13;2.10;;;4.60;99.90;;;;;;5036588;28;20068;-62
2022/12/27 12:03:16;;;;;;;11.05;2.63;;;4.70;99.90;;;;;;5041396;28;20413;-63
2022/12/27 12:06:04;;;;;;;14.27;3.15;;;4.60;99.90;;;;;;5039283;28;20658;-64
2022/12/27 12:08:51;;;;;;;17.08;2.85;;;4.70;99.90;;;;;;5039555;28;20402;-63
2022/12/27 12:11:54;;;;;;;8.63;2.00;;;4.70;99.90;;;;;;5035780;28;20064;-62
2022/12/27 12:14:45;;;;;;;4.05;1.55;;;4.70;99.90;;;;;;5035199;28;20033;-63
2022/12/27 12:17:30;;;;;;;10.90;2.17;;;4.70;99.90;;;;;;5044070;28;20045;-62
2022/12/27 12:20:29;;;;;;;9.55;2.83;;;4.80;99.90;;;;;;5054399;28;20596;-63
2022/12/27 12:23:00;;;;;;;13.77;2.25;;;4.80;99.90;;;;;;5040508;28;20040;-63
2022/12/27 12:25:47;;;;;;;9.10;2.10;;;4.80;99.90;;;;;;5044922;28;21287;-62
2022/12/27 12:28:43;;;;;;;10.65;2.53;;;4.80;99.90;;;;;;5038714;28;20047;-63
2022/12/27 12:31:17;;;;;;;9.90;1.80;;;4.90;99.90;;;;;;5044600;28;20065;-62
2022/12/27 12:34:09;;;;;;;10.18;1.88;;;5.00;99.90;;;;;;5046320;28;20033;-63
2022/12/27 12:37:03;;;;;;;9.05;2.33;;;4.90;99.90;;;;;;5046830;28;20055;-62
2022/12/27 12:40:02;;;;;;;9.70;1.67;;;4.90;99.90;;;;;;5042311;28;20104;-64
2022/12/27 12:42:51;;;;;;;5.22;1.60;;;5.00;99.90;;;;;;5047952;28;20033;-64
2022/12/27 12:45:38;;;;;;;6.88;1.85;;;4.90;99.90;;;;;;5028351;28;20093;-63
2022/12/27 12:48:13;;;;;;;6.20;1.70;;;5.00;99.90;;;;;;5041410;28;20044;-63
2022/12/27 12:51:03;;;;;;;13.60;2.30;;;5.10;99.90;;;;;;5060864;28;20045;-63
2022/12/27 12:54:00;;;;;;;8.30;1.95;;;5.10;99.90;;;;;;5058304;28;20043;-63
2022/12/27 12:56:44;;;;;;;9.00;2.60;;;5.10;99.90;;;;;;5038812;28;20063;-62
2022/12/27 12:59:10;;;;;;;8.05;1.85;;;5.10;99.90;;;;;;5042843;28;20037;-63
2022/12/27 13:02:06;;;;;;;12.18;1.83;;;5.10;99.90;;;;;;5039247;28;20068;-62
2022/12/27 13:04:50;;;;;;;10.88;2.28;;;5.00;99.90;;;;;;5049841;28;20041;-63
2022/12/27 13:07:31;;;;;;;9.57;2.65;;;5.10;99.90;;;;;;5044208;28;20056;-63
2022/12/27 13:09:57;;;;;;;6.93;2.20;;;5.10;99.90;;;;;;5037235;28;20054;-63
2022/12/27 13:12:39;;;;;;;8.05;1.60;;;5.10;99.90;;;;;;5050586;28;20060;-63
2022/12/27 13:15:40;;;;;;;8.45;2.13;;;5.00;99.90;;;;;;5037162;28;20048;-63
2022/12/27 13:18:36;;;;;;;5.18;1.17;;;5.00;99.90;;;;;;5045886;28;20156;-62
2022/12/27 13:21:19;;;;;;;9.35;1.63;;;5.10;99.90;;;;;;5039345;28;20044;-63
2022/12/27 13:24:16;;;;;;;5.65;1.75;;;5.10;99.90;;;;;;5040102;28;20064;-62
2022/12/27 13:27:06;;;;;;;9.07;1.80;;;5.10;99.90;;;;;;5039700;28;20119;-63
2022/12/27 13:30:20;;;;;;;11.43;1.75;;;5.20;99.90;;;;;;5053361;28;20060;-63
2022/12/27 13:33:04;;;;;;;7.28;1.45;;;5.10;99.90;;;;;;5043887;28;20045;-62
2022/12/27 13:35:53;;;;;;;9.98;1.92;;;5.00;99.90;;;;;;5038211;28;20040;-64
2022/12/27 13:38:43;;;;;;;12.10;2.05;;;4.90;99.90;;;;;;5039612;28;20044;-63
2022/12/27 13:41:44;;;;;;;6.75;1.55;;;4.90;99.90;;;;;;5041001;28;20062;-63
2022/12/27 13:44:19;;;;;;;7.80;1.75;;;4.80;99.90;;;;;;5023962;28;20518;-62
2022/12/27 13:47:12;;;;;;;11.25;2.53;;;4.80;99.90;;;;;;5045028;28;20047;-63
2022/12/27 13:50:23;;;;;;;10.32;1.98;;;4.70;99.90;;;;;;5034759;28;20041;-63
2022/12/27 13:52:54;;;;;;;8.50;1.50;;;4.70;99.90;;;;;;5028392;28;20707;-63
2022/12/27 13:55:32;;;;;;;11.90;1.92;;;4.70;99.90;;;;;;5055053;28;20045;-63
2022/12/27 13:58:04;;;;;;;13.05;1.77;;;4.60;99.90;;;;;;5050740;28;20497;-63
2022/12/27 14:01:16;;;;;;;8.20;2.17;;;4.70;99.90;;;;;;5037354;28;20152;-65
2022/12/27 14:03:57;;;;;;;11.30;1.70;;;4.60;99.90;;;;;;5038590;28;20033;-63
2022/12/27 14:06:42;;;;;;;12.60;2.80;;;4.60;99.90;;;;;;5040334;28;20053;-63
2022/12/27 14:09:47;;;;;;;8.27;1.95;;;4.70;99.90;;;;;;5038786;28;20140;-63
2022/12/27 14:12:50;;;;;;;12.77;2.35;;;4.70;99.90;;;;;;5047601;28;20041;-63
2022/12/27 14:15:20;;;;;;;8.90;1.85;;;4.80;99.90;;;;;;5034551;28;20170;-63
2022/12/27 14:18:25;;;;;;;10.75;3.28;;;4.80;99.90;;;;;;5043248;28;20088;-64
2022/12/27 14:21:15;;;;;;;11.75;2.05;;;4.80;99.90;;;;;;5044449;28;20063;-63
2022/12/27 14:24:06;;;;;;;4.95;1.80;;;4.80;99.90;;;;;;5043339;28;20041;-63
2022/12/27 14:27:05;;;;;;;5.97;1.65;;;4.80;99.90;;;;;;5044361;28;20443;-64
2022/12/27 14:30:00;;;;;;;13.75;1.92;;;4.90;99.90;;;;;;5051561;28;20512;-62
2022/12/27 14:33:03;;;;;;;9.65;2.47;;;4.90;99.90;;;;;;5054586;28;20708;-63
2022/12/27 14:36:28;;;;;;;8.13;1.77;;;4.80;99.90;;;;;;5038974;28;20051;-62
2022/12/27 14:39:07;;;;;;;4.97;1.65;;;4.80;99.90;;;;;;5039930;28;20040;-62
2022/12/27 14:42:01;;;;;;;3.67;1.50;;;4.70;99.90;;;;;;5042275;28;20048;-63
2022/12/27 14:44:51;;;;;;;3.88;1.40;;;4.60;99.90;;;;;;5041558;28;20045;-62
2022/12/27 14:47:50;;;;;;;8.93;1.15;;;4.60;99.90;;;;;;5052831;28;20044;-62
2022/12/27 14:50:46;;;;;;;4.30;1.17;;;4.50;99.90;;;;;;5031736;28;20029;-62
2022/12/27 14:53:47;;;;;;;2.28;0.77;;;4.50;99.90;;;;;;5031533;28;20036;-62
2022/12/27 14:56:18;;;;;;;2.83;1.08;;;4.50;99.90;;;;;;5039895;28;20116;-62
2022/12/27 14:58:55;;;;;;;3.75;1.00;;;4.60;99.90;;;;;;5052033;28;20044;-65
2022/12/27 15:01:42;;;;;;;2.53;1.10;;;4.60;99.90;;;;;;5040290;28;20051;-63
2022/12/27 15:04:16;;;;;;;1.92;0.90;;;4.60;99.90;;;;;;5045781;28;20128;-62
2022/12/27 15:07:20;;;;;;;4.32;1.20;;;4.50;99.90;;;;;;5043821;28;20100;-62